Mecca, Ohio
Current Conditions -  °F | °C
As of 10:51 PM on Wednesday 17 Dec 2014 (Local Time) from KYNG Reporting Station
Light Snow Light Snow  
Wind Chill: 17°   Ceiling: 2500
Heat Index: 28°   Visibility: 9mi
Dew Point: 20°   Wind: 13mph
Humidity: 72%   Direction: 260°W
Pressure: 30.1"   Gusts: NA
Location:  41.3436°N, 80.7192°W
Report Text: KYNG 180351Z 26011KT 9SM -SN OVC025 M02/M07 A3010 RMK AO2 SLP206 P0000 T10221067
Loading
Personal Weather Stations






























Interactive Weather Map New forecast layout! Learn more

10-Day Weather Forecast

Advertisements
Track Severe Weather on mobile